Map

Track Data

SID SEASON NUMBER BASIN SUBBASIN NAME ISO_TIME NATURE LAT LON WMO_WIND WMO_PRES WMO_AGENCY TRACK_TYPE DIST2LAND LANDFALL IFLAG USA_AGENCY USA_ATCF_ID USA_LAT USA_LON USA_RECORD USA_STATUS USA_WIND USA_PRES USA_SSHS USA_R34_NE USA_R34_SE USA_R34_SW USA_R34_NW USA_R50_NE USA_R50_SE USA_R50_SW USA_R50_NW USA_R64_NE USA_R64_SE USA_R64_SW USA_R64_NW USA_POCI USA_ROCI USA_RMW USA_EYE TOKYO_LAT TOKYO_LON TOKYO_GRADE TOKYO_WIND TOKYO_PRES TOKYO_R50_DIR TOKYO_R50_LONG TOKYO_R50_SHORT TOKYO_R30_DIR TOKYO_R30_LONG TOKYO_R30_SHORT TOKYO_LAND CMA_LAT CMA_LON CMA_CAT CMA_WIND CMA_PRES HKO_LAT HKO_LON HKO_CAT HKO_WIND HKO_PRES NEWDELHI_LAT NEWDELHI_LON NEWDELHI_GRADE NEWDELHI_WIND NEWDELHI_PRES NEWDELHI_CI NEWDELHI_DP NEWDELHI_POCI REUNION_LAT REUNION_LON REUNION_TYPE REUNION_WIND REUNION_PRES REUNION_TNUM REUNION_CI REUNION_RMW REUNION_R34_NE REUNION_R34_SE REUNION_R34_SW REUNION_R34_NW REUNION_R50_NE REUNION_R50_SE REUNION_R50_SW REUNION_R50_NW REUNION_R64_NE REUNION_R64_SE REUNION_R64_SW REUNION_R64_NW BOM_LAT BOM_LON BOM_TYPE BOM_WIND BOM_PRES BOM_TNUM BOM_CI BOM_RMW BOM_R34_NE BOM_R34_SE BOM_R34_SW BOM_R34_NW BOM_R50_NE BOM_R50_SE BOM_R50_SW BOM_R50_NW BOM_R64_NE BOM_R64_SE BOM_R64_SW BOM_R64_NW BOM_ROCI BOM_POCI BOM_EYE BOM_POS_METHOD BOM_PRES_METHOD NADI_LAT NADI_LON NADI_CAT NADI_WIND NADI_PRES WELLINGTON_LAT WELLINGTON_LON WELLINGTON_WIND WELLINGTON_PRES DS824_LAT DS824_LON DS824_STAGE DS824_WIND DS824_PRES TD9636_LAT TD9636_LON TD9636_STAGE TD9636_WIND TD9636_PRES TD9635_LAT TD9635_LON TD9635_WIND TD9635_PRES TD9635_ROCI NEUMANN_LAT NEUMANN_LON NEUMANN_CLASS NEUMANN_WIND NEUMANN_PRES MLC_LAT MLC_LON MLC_CLASS MLC_WIND MLC_PRES USA_GUST BOM_GUST BOM_GUST_PER REUNION_GUST REUNION_GUST_PER USA_SEAHGT USA_SEARAD_NE USA_SEARAD_SE USA_SEARAD_SW USA_SEARAD_NW STORM_SPEED STORM_DIR
1998187N17132 1998 35 WP MM NOT_NAMED 1998-07-06 00:00:00 NR 17.2000 132.300 main 921 918 O_____________ jtwc_wp WP011998 17.2000 132.300 15 -1 3 329
1998187N17132 1998 35 WP MM NOT_NAMED 1998-07-06 03:00:00 NR 17.3175 132.230 main 918 912 P_____________ WP011998 17.3175 132.230 15 -1 4 328
1998187N17132 1998 35 WP MM NOT_NAMED 1998-07-06 06:00:00 NR 17.5000 132.100 main 917 908 O_____________ jtwc_wp WP011998 17.5000 132.100 15 -1 6 324
1998187N17132 1998 35 WP MM NOT_NAMED 1998-07-06 09:00:00 NR 17.7850 131.873 main 913 899 P_____________ WP011998 17.7850 131.873 17 -1 8 322
1998187N17132 1998 35 WP MM NOT_NAMED 1998-07-06 12:00:00 NR 18.1000 131.600 main 901 895 O_____________ jtwc_wp WP011998 18.1000 131.600 XX 20 -5 8 319
1998187N17132 1998 35 WP MM NOT_NAMED 1998-07-06 15:00:00 NR 18.3575 131.342 main 892 887 P_____________ WP011998 18.3575 131.342 20 -1 7 316
1998187N17132 1998 35 WP MM NOT_NAMED 1998-07-06 18:00:00 NR 18.6000 131.100 main 887 884 O_____________ jtwc_wp WP011998 18.6000 131.100 20 -1 7 319
1998187N17132 1998 35 WP MM NOT_NAMED 1998-07-06 21:00:00 NR 18.8650 130.885 main 890 881 P_____________ WP011998 18.8650 130.885 20 -1 6 323
1998187N17132 1998 35 WP MM NOT_NAMED 1998-07-07 00:00:00 NR 19.1000 130.700 main 887 868 O_____________ jtwc_wp WP011998 19.1000 130.700 20 -1 5 321
1998187N17132 1998 35 WP MM NOT_NAMED 1998-07-07 03:00:00 NR 19.2725 130.535 main 868 859 P_____________ WP011998 19.2725 130.535 20 -1 4 317
1998187N17132 1998 35 WP MM NOT_NAMED 1998-07-07 06:00:00 NR 19.4000 130.400 main 859 850 O_____________ jtwc_wp WP011998 19.4000 130.400 20 -1 3 317
1998187N17132 1998 35 WP MM NOT_NAMED 1998-07-07 09:00:00 NR 19.5150 130.292 main 850 841 P_____________ WP011998 19.5150 130.292 22 -1 3 316
1998187N17132 1998 35 WP MM NOT_NAMED 1998-07-07 12:00:00 NR 19.6000 130.200 main 841 830 O_____________ jtwc_wp WP011998 19.6000 130.200 25 -1 2 308
1998187N17132 1998 35 WP MM NOT_NAMED 1998-07-07 15:00:00 NR 19.6425 130.115 main 830 822 P_____________ WP011998 19.6425 130.115 25 -1 2 298
1998187N17132 1998 35 WP MM NOT_NAMED 1998-07-07 18:00:00 NR 19.7000 130.000 main 822 803 O_____________ jtwc_wp WP011998 19.7000 130.000 25 -1 3 306
1998187N17132 1998 35 WP MM NOT_NAMED 1998-07-07 21:00:00 NR 19.8350 129.830 main 803 764 P_____________ WP011998 19.8350 129.830 25 -1 6 286
1998187N17132 1998 35 WP MM NOT_NAMED 1998-07-08 00:00:00 TS 19.8600 129.420 main 764 743 O_O___________ jtwc_wp WP011998 20.0000 129.600 25 -1 19.3000 128.700 1 23 1004 6 280
1998187N17132 1998 35 WP MM NOT_NAMED 1998-07-08 03:00:00 TS 19.9459 129.167 main 743 725 P_P___________ WP011998 20.1351 129.307 27 -1 19.5676 128.887 1 26 1003 5 300
1998187N17132 1998 35 WP MM NOT_NAMED 1998-07-08 06:00:00 TS 20.0857 129.000 main 728 718 O_O___________ jtwc_wp WP011998 20.3000 129.000 30 -1 19.8000 129.000 1 29 1002 4 317
1998187N17132 1998 35 WP MM NOT_NAMED 1998-07-08 09:00:00 TS 20.2537 128.858 main 724 707 P_P___________ WP011998 20.5350 128.728 30 -1 19.9725 128.988 1 29 1002 5 322
1998187N17132 1998 35 WP MM NOT_NAMED 1998-07-08 12:00:00 TS 20.4500 128.700 main 710 700 O_O___________ jtwc_wp WP011998 20.8000 128.500 30 -1 20.1000 128.900 1 29 1002 5 325
1998187N17132 1998 35 WP MM NOT_NAMED 1998-07-08 15:00:00 TS 20.6325 128.575 main 704 698 P_P___________ WP011998 21.0650 128.327 30 -1 20.2000 128.822 1 29 1002 4 326
1998187N17132 1998 35 WP MM NOT_NAMED 1998-07-08 18:00:00 TS 20.8000 128.450 main 702 687 O_O___________ jtwc_wp WP011998 21.3000 128.200 30 -1 20.3000 128.700 1 29 1002 4 322
1998187N17132 1998 35 WP MM NOT_NAMED 1998-07-08 21:00:00 TS 20.9575 128.304 main 692 682 P_P___________ WP011998 21.4725 128.100 30 -1 20.4425 128.508 1 29 1002 4 317
1998187N17132 1998 35 WP MM NOT_NAMED 1998-07-09 00:00:00 TS 21.1000 128.150 main 687 673 O_O___________ jtwc_wp WP011998 21.6000 128.000 30 -1 20.6000 128.300 1 29 1002 4 315
1998187N17132 1998 35 WP MM NOT_NAMED 1998-07-09 03:00:00 TS 21.2212 128.019 main 673 669 P_P___________ WP011998 21.7150 127.865 30 -1 20.7274 128.172 1 29 1002 4 312
1998187N17132 1998 35 WP MM NOT_NAMED 1998-07-09 06:00:00 TS 21.3500 127.850 main 674 653 O_O___________ jtwc_wp WP011998 21.8000 127.700 30 -1 20.9000 128.000 1 29 1002 5 307
1998187N17132 1998 35 WP MM NOT_NAMED 1998-07-09 09:00:00 TS 21.5138 127.598 main 653 626 P_P___________ WP011998 21.8424 127.522 30 -1 21.1851 127.673 1 29 1002 6 304
1998187N17132 1998 35 WP MM NOT_NAMED 1998-07-09 12:00:00 TS 21.7000 127.300 main 626 590 O_O___________ jtwc_wp WP011998 21.9000 127.300 30 -1 21.5000 127.300 1 29 1002 6 305
1998187N17132 1998 35 WP MM NOT_NAMED 1998-07-09 15:00:00 TS 21.8848 127.033 main 590 555 P_P___________ WP011998 22.0198 127.045 30 -1 21.7497 127.022 1 29 1002 7 306
1998187N17132 1998 35 WP MM NOT_NAMED 1998-07-09 18:00:00 TS 22.1000 126.700 main 555 510 O_O___________ jtwc_wp WP011998 22.2000 126.700 30 -1 22.0000 126.700 1 29 1002 9 302
1998187N17132 1998 35 WP MM NOT_NAMED 1998-07-09 21:00:00 TS 22.3602 126.223 main 497 441 P_P___________ WP011998 22.4276 126.230 30 -1 22.2927 126.215 1 29 1001 11 301
1998187N17132 1998 35 WP MM NOT_NAMED 1998-07-10 00:00:00 TS 22.6500 125.700 main 436 389 O_O___________ jtwc_wp WP011998 22.7000 125.700 30 -1 22.6000 125.700 1 29 1000 11 302
1998187N17132 1998 35 WP MM NOT_NAMED 1998-07-10 03:00:00 TS 22.9348 125.242 main 380 328 P_P___________ WP011998 22.9849 125.192 27 -1 22.8847 125.292 1 29 1000 10 306
1998187N17132 1998 35 WP MM NOT_NAMED 1998-07-10 06:00:00 TS 23.2500 124.800 main 323 272 O_O___________ jtwc_wp WP011998 23.3000 124.700 25 -1 23.2000 124.900 1 29 1000 11 311
1998187N17132 1998 35 WP MM NOT_NAMED 1998-07-10 09:00:00 TS 23.6285 124.365 main 272 210 P_P___________ WP011998 23.6496 124.265 25 -1 23.6074 124.465 1 29 1000 11 312
1998187N17132 1998 35 WP MM NOT_NAMED 1998-07-10 12:00:00 TS 24.0000 123.900 main 210 153 O_O___________ jtwc_wp WP011998 24.0000 123.800 25 -1 24.0000 124.000 1 29 1000 11 306
1998187N17132 1998 35 WP MM NOT_NAMED 1998-07-10 15:00:00 TS 24.2974 123.365 main 153 91 P_P___________ WP011998 24.3149 123.230 25 -1 24.2800 123.500 1 29 1000 11 299
1998187N17132 1998 35 WP MM NOT_NAMED 1998-07-10 18:00:00 TS 24.5500 122.800 main 91 37 O_O___________ jtwc_wp WP011998 24.6000 122.600 25 -1 24.5000 123.000 1 29 1000 11 295
1998187N17132 1998 35 WP MM NOT_NAMED 1998-07-10 21:00:00 TS 24.7803 122.245 main 30 0 P_P___________ WP011998 24.8580 121.953 25 -1 24.7027 122.538 1 29 1000 11 294
1998187N17132 1998 35 WP MM NOT_NAMED 1998-07-11 00:00:00 TS 25.0000 121.700 main 0 O_O___________ jtwc_wp WP011998 25.1000 121.300 25 -1 24.9000 122.100 1 29 1000 11 294

Digital Typhoon Data and Search

About IBTrACS Database

This database is a web-friendly format of International Best Track Archive for Climate Stewardship (IBTrACS), a global best track data archive curated by NOAA dating back to 1842.

Updated: 2021-11-26